sensor_id;sensor_type;location;lat;lon;timestamp;P1;durP1;ratioP1;P2;durP2;ratioP2
54937;SDS011;52756;52.826;6.214;2022-10-14T00:01:47;6.90;;;5.82;;
54937;SDS011;52756;52.826;6.214;2022-10-14T00:04:13;5.80;;;5.20;;
54937;SDS011;52756;52.826;6.214;2022-10-14T00:06:38;5.85;;;5.00;;
54937;SDS011;52756;52.826;6.214;2022-10-14T00:09:05;6.95;;;6.25;;
54937;SDS011;52756;52.826;6.214;2022-10-14T00:11:33;7.22;;;5.70;;
54937;SDS011;52756;52.826;6.214;2022-10-14T00:14:05;7.07;;;6.38;;
54937;SDS011;52756;52.826;6.214;2022-10-14T00:16:37;6.78;;;6.07;;
54937;SDS011;52756;52.826;6.214;2022-10-14T00:19:04;6.72;;;6.00;;
54937;SDS011;52756;52.826;6.214;2022-10-14T00:21:30;6.55;;;5.85;;
54937;SDS011;52756;52.826;6.214;2022-10-14T00:23:56;8.45;;;7.55;;
54937;SDS011;52756;52.826;6.214;2022-10-14T00:26:23;7.70;;;6.70;;
54937;SDS011;52756;52.826;6.214;2022-10-14T00:28:51;7.63;;;6.80;;
54937;SDS011;52756;52.826;6.214;2022-10-14T00:31:17;8.20;;;7.40;;
54937;SDS011;52756;52.826;6.214;2022-10-14T00:33:44;6.80;;;6.10;;
54937;SDS011;52756;52.826;6.214;2022-10-14T00:36:11;7.10;;;6.40;;
54937;SDS011;52756;52.826;6.214;2022-10-14T00:38:38;7.03;;;6.32;;
54937;SDS011;52756;52.826;6.214;2022-10-14T00:41:04;8.48;;;7.13;;
54937;SDS011;52756;52.826;6.214;2022-10-14T00:44:05;9.20;;;8.30;;
54937;SDS011;52756;52.826;6.214;2022-10-14T00:46:29;8.07;;;6.93;;
54937;SDS011;52756;52.826;6.214;2022-10-14T00:48:58;8.75;;;7.85;;
54937;SDS011;52756;52.826;6.214;2022-10-14T00:51:27;7.70;;;6.90;;
54937;SDS011;52756;52.826;6.214;2022-10-14T00:53:53;8.35;;;7.55;;
54937;SDS011;52756;52.826;6.214;2022-10-14T00:56:21;13.77;;;9.55;;
54937;SDS011;52756;52.826;6.214;2022-10-14T00:58:49;10.70;;;8.75;;
54937;SDS011;52756;52.826;6.214;2022-10-14T01:01:16;11.40;;;8.65;;
54937;SDS011;52756;52.826;6.214;2022-10-14T01:03:41;12.48;;;9.80;;
54937;SDS011;52756;52.826;6.214;2022-10-14T01:11:56;13.73;;;9.43;;
54937;SDS011;52756;52.826;6.214;2022-10-14T01:19:57;12.57;;;9.25;;
54937;SDS011;52756;52.826;6.214;2022-10-14T01:23:09;18.92;;;13.18;;
54937;SDS011;52756;52.826;6.214;2022-10-14T01:31:44;15.48;;;11.30;;
54937;SDS011;52756;52.826;6.214;2022-10-14T01:34:13;13.10;;;10.13;;
54937;SDS011;52756;52.826;6.214;2022-10-14T01:36:50;17.70;;;12.47;;
54937;SDS011;52756;52.826;6.214;2022-10-14T01:41:51;14.73;;;10.60;;
54937;SDS011;52756;52.826;6.214;2022-10-14T01:44:23;15.18;;;11.63;;
54937;SDS011;52756;52.826;6.214;2022-10-14T01:46:51;41.42;;;14.70;;
54937;SDS011;52756;52.826;6.214;2022-10-14T01:49:30;18.58;;;13.00;;
54937;SDS011;52756;52.826;6.214;2022-10-14T01:52:18;13.75;;;11.02;;
54937;SDS011;52756;52.826;6.214;2022-10-14T01:54:49;18.50;;;14.27;;
54937;SDS011;52756;52.826;6.214;2022-10-14T01:57:19;20.02;;;13.38;;
54937;SDS011;52756;52.826;6.214;2022-10-14T01:59:48;18.90;;;13.23;;
54937;SDS011;52756;52.826;6.214;2022-10-14T02:02:16;18.23;;;12.70;;
54937;SDS011;52756;52.826;6.214;2022-10-14T02:04:42;17.35;;;12.63;;
54937;SDS011;52756;52.826;6.214;2022-10-14T02:07:42;47.95;;;14.80;;
54937;SDS011;52756;52.826;6.214;2022-10-14T02:17:56;14.82;;;10.80;;
54937;SDS011;52756;52.826;6.214;2022-10-14T02:20:54;31.75;;;13.63;;
54937;SDS011;52756;52.826;6.214;2022-10-14T02:23:45;16.08;;;12.30;;
54937;SDS011;52756;52.826;6.214;2022-10-14T02:26:16;16.23;;;11.95;;
54937;SDS011;52756;52.826;6.214;2022-10-14T02:28:42;15.13;;;11.20;;
54937;SDS011;52756;52.826;6.214;2022-10-14T02:31:11;14.38;;;9.82;;
54937;SDS011;52756;52.826;6.214;2022-10-14T02:33:40;16.58;;;12.18;;
54937;SDS011;52756;52.826;6.214;2022-10-14T02:36:08;12.88;;;10.05;;
54937;SDS011;52756;52.826;6.214;2022-10-14T02:38:37;14.45;;;10.43;;
54937;SDS011;52756;52.826;6.214;2022-10-14T02:41:05;16.30;;;12.27;;
54937;SDS011;52756;52.826;6.214;2022-10-14T02:43:36;22.67;;;13.98;;
54937;SDS011;52756;52.826;6.214;2022-10-14T02:46:02;15.68;;;12.60;;
54937;SDS011;52756;52.826;6.214;2022-10-14T02:48:29;14.70;;;12.13;;
54937;SDS011;52756;52.826;6.214;2022-10-14T02:50:55;14.05;;;11.82;;
54937;SDS011;52756;52.826;6.214;2022-10-14T02:53:21;15.02;;;10.70;;
54937;SDS011;52756;52.826;6.214;2022-10-14T02:55:46;12.23;;;9.50;;
54937;SDS011;52756;52.826;6.214;2022-10-14T02:58:12;12.95;;;9.88;;
54937;SDS011;52756;52.826;6.214;2022-10-14T03:00:38;12.38;;;10.07;;
54937;SDS011;52756;52.826;6.214;2022-10-14T03:03:04;12.68;;;10.23;;
54937;SDS011;52756;52.826;6.214;2022-10-14T03:05:29;15.35;;;12.02;;
54937;SDS011;52756;52.826;6.214;2022-10-14T03:07:55;14.93;;;11.50;;
54937;SDS011;52756;52.826;6.214;2022-10-14T03:10:21;67.68;;;15.48;;
54937;SDS011;52756;52.826;6.214;2022-10-14T03:12:46;14.68;;;11.55;;
54937;SDS011;52756;52.826;6.214;2022-10-14T03:15:12;26.17;;;14.02;;
54937;SDS011;52756;52.826;6.214;2022-10-14T03:17:38;15.85;;;12.68;;
54937;SDS011;52756;52.826;6.214;2022-10-14T03:20:04;17.65;;;12.68;;
54937;SDS011;52756;52.826;6.214;2022-10-14T03:22:30;18.08;;;12.50;;
54937;SDS011;52756;52.826;6.214;2022-10-14T03:24:56;17.05;;;10.48;;
54937;SDS011;52756;52.826;6.214;2022-10-14T03:27:22;16.55;;;11.50;;
54937;SDS011;52756;52.826;6.214;2022-10-14T03:29:48;13.68;;;11.15;;
54937;SDS011;52756;52.826;6.214;2022-10-14T03:32:13;17.85;;;10.68;;
54937;SDS011;52756;52.826;6.214;2022-10-14T03:34:39;13.45;;;10.77;;
54937;SDS011;52756;52.826;6.214;2022-10-14T03:37:05;12.93;;;10.63;;
54937;SDS011;52756;52.826;6.214;2022-10-14T03:39:31;14.98;;;10.82;;
54937;SDS011;52756;52.826;6.214;2022-10-14T03:41:57;15.45;;;10.32;;
54937;SDS011;52756;52.826;6.214;2022-10-14T03:44:23;16.67;;;11.27;;
54937;SDS011;52756;52.826;6.214;2022-10-14T03:46:49;16.27;;;11.38;;
54937;SDS011;52756;52.826;6.214;2022-10-14T03:49:14;14.82;;;11.70;;
54937;SDS011;52756;52.826;6.214;2022-10-14T03:51:40;28.25;;;12.90;;
54937;SDS011;52756;52.826;6.214;2022-10-14T03:54:06;19.42;;;11.73;;
54937;SDS011;52756;52.826;6.214;2022-10-14T03:56:31;16.98;;;13.45;;
54937;SDS011;52756;52.826;6.214;2022-10-14T03:58:57;13.52;;;11.68;;
54937;SDS011;52756;52.826;6.214;2022-10-14T04:01:23;21.02;;;13.00;;
54937;SDS011;52756;52.826;6.214;2022-10-14T04:03:49;27.15;;;13.30;;
54937;SDS011;52756;52.826;6.214;2022-10-14T04:06:16;25.30;;;14.80;;
54937;SDS011;52756;52.826;6.214;2022-10-14T04:08:42;32.40;;;13.95;;
54937;SDS011;52756;52.826;6.214;2022-10-14T04:11:08;21.92;;;13.65;;
54937;SDS011;52756;52.826;6.214;2022-10-14T04:13:34;19.50;;;13.40;;
54937;SDS011;52756;52.826;6.214;2022-10-14T04:16:07;19.45;;;13.05;;
54937;SDS011;52756;52.826;6.214;2022-10-14T04:18:34;24.23;;;12.73;;
54937;SDS011;52756;52.826;6.214;2022-10-14T04:21:04;21.73;;;14.02;;
54937;SDS011;52756;52.826;6.214;2022-10-14T04:23:32;36.03;;;14.80;;
54937;SDS011;52756;52.826;6.214;2022-10-14T04:26:02;23.45;;;14.93;;
54937;SDS011;52756;52.826;6.214;2022-10-14T04:28:29;19.65;;;13.07;;
54937;SDS011;52756;52.826;6.214;2022-10-14T04:30:55;14.05;;;10.27;;
54937;SDS011;52756;52.826;6.214;2022-10-14T04:33:21;18.08;;;12.60;;
54937;SDS011;52756;52.826;6.214;2022-10-14T04:35:47;23.08;;;15.48;;
54937;SDS011;52756;52.826;6.214;2022-10-14T04:38:13;25.55;;;14.98;;
54937;SDS011;52756;52.826;6.214;2022-10-14T04:40:38;14.43;;;10.63;;
54937;SDS011;52756;52.826;6.214;2022-10-14T04:43:04;22.88;;;13.50;;
54937;SDS011;52756;52.826;6.214;2022-10-14T04:45:30;29.35;;;14.60;;
54937;SDS011;52756;52.826;6.214;2022-10-14T04:47:56;21.27;;;14.35;;
54937;SDS011;52756;52.826;6.214;2022-10-14T04:50:21;17.63;;;12.25;;
54937;SDS011;52756;52.826;6.214;2022-10-14T04:52:47;27.35;;;13.95;;
54937;SDS011;52756;52.826;6.214;2022-10-14T04:55:13;40.33;;;16.42;;
54937;SDS011;52756;52.826;6.214;2022-10-14T04:57:39;23.63;;;14.70;;
54937;SDS011;52756;52.826;6.214;2022-10-14T05:00:07;21.70;;;14.00;;
54937;SDS011;52756;52.826;6.214;2022-10-14T05:02:34;24.88;;;13.05;;
54937;SDS011;52756;52.826;6.214;2022-10-14T05:05:00;25.70;;;14.68;;
54937;SDS011;52756;52.826;6.214;2022-10-14T05:07:25;21.77;;;13.77;;
54937;SDS011;52756;52.826;6.214;2022-10-14T05:09:51;26.73;;;14.60;;
54937;SDS011;52756;52.826;6.214;2022-10-14T05:12:18;23.23;;;14.05;;
54937;SDS011;52756;52.826;6.214;2022-10-14T05:14:43;32.15;;;14.10;;
54937;SDS011;52756;52.826;6.214;2022-10-14T05:17:09;38.08;;;16.02;;
54937;SDS011;52756;52.826;6.214;2022-10-14T05:19:35;28.77;;;14.60;;
54937;SDS011;52756;52.826;6.214;2022-10-14T05:22:01;23.58;;;14.57;;
54937;SDS011;52756;52.826;6.214;2022-10-14T05:24:26;17.55;;;12.68;;
54937;SDS011;52756;52.826;6.214;2022-10-14T05:26:52;21.27;;;13.57;;
54937;SDS011;52756;52.826;6.214;2022-10-14T05:29:17;31.40;;;15.60;;
54937;SDS011;52756;52.826;6.214;2022-10-14T05:31:43;28.73;;;14.55;;
54937;SDS011;52756;52.826;6.214;2022-10-14T05:34:09;20.85;;;14.60;;
54937;SDS011;52756;52.826;6.214;2022-10-14T05:36:35;18.23;;;12.30;;
54937;SDS011;52756;52.826;6.214;2022-10-14T05:39:01;22.23;;;14.95;;
54937;SDS011;52756;52.826;6.214;2022-10-14T05:41:30;26.80;;;16.20;;
54937;SDS011;52756;52.826;6.214;2022-10-14T05:43:56;17.70;;;12.65;;
54937;SDS011;52756;52.826;6.214;2022-10-14T05:46:22;16.70;;;12.80;;
54937;SDS011;52756;52.826;6.214;2022-10-14T05:48:48;39.28;;;16.33;;
54937;SDS011;52756;52.826;6.214;2022-10-14T05:51:13;22.67;;;14.98;;
54937;SDS011;52756;52.826;6.214;2022-10-14T05:53:39;24.38;;;14.93;;
54937;SDS011;52756;52.826;6.214;2022-10-14T05:56:06;21.33;;;14.82;;
54937;SDS011;52756;52.826;6.214;2022-10-14T05:58:33;22.15;;;13.15;;
54937;SDS011;52756;52.826;6.214;2022-10-14T06:01:03;27.67;;;15.57;;
54937;SDS011;52756;52.826;6.214;2022-10-14T06:03:30;55.28;;;16.67;;
54937;SDS011;52756;52.826;6.214;2022-10-14T06:05:56;32.08;;;16.90;;
54937;SDS011;52756;52.826;6.214;2022-10-14T06:08:22;33.05;;;15.50;;
54937;SDS011;52756;52.826;6.214;2022-10-14T06:10:48;55.00;;;17.75;;
54937;SDS011;52756;52.826;6.214;2022-10-14T06:13:15;41.08;;;18.20;;
54937;SDS011;52756;52.826;6.214;2022-10-14T06:15:41;33.13;;;16.75;;
54937;SDS011;52756;52.826;6.214;2022-10-14T06:18:07;31.10;;;18.90;;
54937;SDS011;52756;52.826;6.214;2022-10-14T06:20:32;67.47;;;20.27;;
54937;SDS011;52756;52.826;6.214;2022-10-14T06:22:58;39.28;;;18.20;;
54937;SDS011;52756;52.826;6.214;2022-10-14T06:25:25;36.05;;;18.52;;
54937;SDS011;52756;52.826;6.214;2022-10-14T06:27:51;33.63;;;18.10;;
54937;SDS011;52756;52.826;6.214;2022-10-14T06:30:16;62.03;;;19.95;;
54937;SDS011;52756;52.826;6.214;2022-10-14T06:32:42;54.10;;;19.23;;
54937;SDS011;52756;52.826;6.214;2022-10-14T06:35:08;45.13;;;17.73;;
54937;SDS011;52756;52.826;6.214;2022-10-14T06:37:34;60.90;;;18.52;;
54937;SDS011;52756;52.826;6.214;2022-10-14T06:39:59;45.78;;;19.27;;
54937;SDS011;52756;52.826;6.214;2022-10-14T06:42:25;58.38;;;19.02;;
54937;SDS011;52756;52.826;6.214;2022-10-14T06:44:50;51.85;;;20.02;;
54937;SDS011;52756;52.826;6.214;2022-10-14T06:47:16;46.75;;;19.30;;
54937;SDS011;52756;52.826;6.214;2022-10-14T06:49:42;66.32;;;22.05;;
54937;SDS011;52756;52.826;6.214;2022-10-14T06:52:07;53.65;;;19.85;;
54937;SDS011;52756;52.826;6.214;2022-10-14T06:54:33;49.60;;;21.80;;
54937;SDS011;52756;52.826;6.214;2022-10-14T06:56:59;65.40;;;22.48;;
54937;SDS011;52756;52.826;6.214;2022-10-14T06:59:24;61.60;;;22.77;;
54937;SDS011;52756;52.826;6.214;2022-10-14T07:01:53;50.17;;;22.33;;
54937;SDS011;52756;52.826;6.214;2022-10-14T07:04:19;71.10;;;22.42;;
54937;SDS011;52756;52.826;6.214;2022-10-14T07:06:45;54.70;;;23.20;;
54937;SDS011;52756;52.826;6.214;2022-10-14T07:09:11;58.72;;;24.75;;
54937;SDS011;52756;52.826;6.214;2022-10-14T07:11:36;50.35;;;23.02;;
54937;SDS011;52756;52.826;6.214;2022-10-14T07:14:02;50.38;;;23.15;;
54937;SDS011;52756;52.826;6.214;2022-10-14T07:16:28;54.60;;;25.48;;
54937;SDS011;52756;52.826;6.214;2022-10-14T07:18:53;59.17;;;25.95;;
54937;SDS011;52756;52.826;6.214;2022-10-14T07:21:19;52.40;;;25.33;;
54937;SDS011;52756;52.826;6.214;2022-10-14T07:23:45;53.83;;;25.35;;
54937;SDS011;52756;52.826;6.214;2022-10-14T07:26:11;57.22;;;25.10;;
54937;SDS011;52756;52.826;6.214;2022-10-14T07:28:37;57.42;;;24.98;;
54937;SDS011;52756;52.826;6.214;2022-10-14T07:31:03;56.50;;;25.95;;
54937;SDS011;52756;52.826;6.214;2022-10-14T07:33:31;57.47;;;24.80;;
54937;SDS011;52756;52.826;6.214;2022-10-14T07:36:02;51.88;;;24.70;;
54937;SDS011;52756;52.826;6.214;2022-10-14T07:38:29;51.55;;;24.85;;
54937;SDS011;52756;52.826;6.214;2022-10-14T07:40:56;51.17;;;24.15;;
54937;SDS011;52756;52.826;6.214;2022-10-14T07:43:30;49.50;;;24.15;;
54937;SDS011;52756;52.826;6.214;2022-10-14T07:45:59;45.35;;;22.85;;
54937;SDS011;52756;52.826;6.214;2022-10-14T07:48:27;50.08;;;23.35;;
54937;SDS011;52756;52.826;6.214;2022-10-14T07:50:54;50.85;;;24.27;;
54937;SDS011;52756;52.826;6.214;2022-10-14T07:53:21;54.10;;;26.17;;
54937;SDS011;52756;52.826;6.214;2022-10-14T07:55:47;49.95;;;25.08;;
54937;SDS011;52756;52.826;6.214;2022-10-14T07:58:19;56.88;;;26.40;;
54937;SDS011;52756;52.826;6.214;2022-10-14T08:00:47;50.15;;;23.83;;
54937;SDS011;52756;52.826;6.214;2022-10-14T08:03:14;47.38;;;23.55;;
54937;SDS011;52756;52.826;6.214;2022-10-14T08:05:40;46.15;;;23.98;;
54937;SDS011;52756;52.826;6.214;2022-10-14T08:08:06;46.90;;;25.27;;
54937;SDS011;52756;52.826;6.214;2022-10-14T08:10:32;49.10;;;25.23;;
54937;SDS011;52756;52.826;6.214;2022-10-14T08:12:58;46.63;;;24.90;;
54937;SDS011;52756;52.826;6.214;2022-10-14T08:15:24;48.80;;;25.55;;
54937;SDS011;52756;52.826;6.214;2022-10-14T08:17:54;44.63;;;23.77;;
54937;SDS011;52756;52.826;6.214;2022-10-14T08:20:20;47.85;;;24.92;;
54937;SDS011;52756;52.826;6.214;2022-10-14T08:22:46;53.45;;;26.17;;
54937;SDS011;52756;52.826;6.214;2022-10-14T08:25:12;49.90;;;25.38;;
54937;SDS011;52756;52.826;6.214;2022-10-14T08:27:37;49.80;;;26.35;;
54937;SDS011;52756;52.826;6.214;2022-10-14T08:30:04;51.83;;;26.45;;
54937;SDS011;52756;52.826;6.214;2022-10-14T08:32:30;51.20;;;26.45;;
54937;SDS011;52756;52.826;6.214;2022-10-14T08:34:55;51.15;;;26.42;;
54937;SDS011;52756;52.826;6.214;2022-10-14T08:37:21;50.15;;;26.65;;
54937;SDS011;52756;52.826;6.214;2022-10-14T08:39:47;53.60;;;26.50;;
54937;SDS011;52756;52.826;6.214;2022-10-14T08:42:16;53.53;;;26.70;;
54937;SDS011;52756;52.826;6.214;2022-10-14T08:47:48;53.42;;;27.35;;
54937;SDS011;52756;52.826;6.214;2022-10-14T08:50:27;48.22;;;25.70;;
54937;SDS011;52756;52.826;6.214;2022-10-14T08:53:03;50.50;;;25.77;;
54937;SDS011;52756;52.826;6.214;2022-10-14T09:00:48;39.30;;;22.05;;
54937;SDS011;52756;52.826;6.214;2022-10-14T09:03:20;37.05;;;20.92;;
54937;SDS011;52756;52.826;6.214;2022-10-14T09:05:58;39.20;;;20.65;;
54937;SDS011;52756;52.826;6.214;2022-10-14T09:08:28;34.97;;;19.00;;
54937;SDS011;52756;52.826;6.214;2022-10-14T09:10:59;37.50;;;19.58;;
54937;SDS011;52756;52.826;6.214;2022-10-14T09:13:38;34.00;;;19.08;;
54937;SDS011;52756;52.826;6.214;2022-10-14T09:16:08;35.47;;;18.38;;
54937;SDS011;52756;52.826;6.214;2022-10-14T09:18:54;34.50;;;17.80;;
54937;SDS011;52756;52.826;6.214;2022-10-14T09:24:12;31.73;;;17.63;;
54937;SDS011;52756;52.826;6.214;2022-10-14T09:26:42;35.25;;;18.35;;
54937;SDS011;52756;52.826;6.214;2022-10-14T09:29:17;29.85;;;17.05;;
54937;SDS011;52756;52.826;6.214;2022-10-14T09:31:47;31.67;;;16.23;;
54937;SDS011;52756;52.826;6.214;2022-10-14T09:34:15;29.33;;;16.27;;
54937;SDS011;52756;52.826;6.214;2022-10-14T09:36:45;29.75;;;16.08;;
54937;SDS011;52756;52.826;6.214;2022-10-14T09:39:12;27.85;;;15.60;;
54937;SDS011;52756;52.826;6.214;2022-10-14T09:41:38;26.40;;;14.90;;
54937;SDS011;52756;52.826;6.214;2022-10-14T09:46:45;22.60;;;14.27;;
54937;SDS011;52756;52.826;6.214;2022-10-14T09:49:16;24.20;;;14.40;;
54937;SDS011;52756;52.826;6.214;2022-10-14T09:51:47;27.38;;;15.70;;
54937;SDS011;52756;52.826;6.214;2022-10-14T09:54:26;27.85;;;15.80;;
54937;SDS011;52756;52.826;6.214;2022-10-14T09:56:58;25.73;;;14.35;;
54937;SDS011;52756;52.826;6.214;2022-10-14T09:59:32;30.02;;;15.57;;
54937;SDS011;52756;52.826;6.214;2022-10-14T10:02:22;28.48;;;15.27;;
54937;SDS011;52756;52.826;6.214;2022-10-14T10:04:56;28.13;;;15.30;;
54937;SDS011;52756;52.826;6.214;2022-10-14T10:07:32;30.73;;;15.43;;
54937;SDS011;52756;52.826;6.214;2022-10-14T10:10:00;28.08;;;14.35;;
54937;SDS011;52756;52.826;6.214;2022-10-14T10:12:46;30.27;;;15.73;;
54937;SDS011;52756;52.826;6.214;2022-10-14T10:15:16;27.13;;;14.77;;
54937;SDS011;52756;52.826;6.214;2022-10-14T10:17:45;26.95;;;13.43;;
54937;SDS011;52756;52.826;6.214;2022-10-14T10:20:27;26.00;;;14.38;;
54937;SDS011;52756;52.826;6.214;2022-10-14T10:23:15;23.75;;;13.93;;
54937;SDS011;52756;52.826;6.214;2022-10-14T10:25:43;25.95;;;13.38;;
54937;SDS011;52756;52.826;6.214;2022-10-14T10:28:14;25.70;;;13.07;;
54937;SDS011;52756;52.826;6.214;2022-10-14T10:30:42;22.42;;;12.35;;
54937;SDS011;52756;52.826;6.214;2022-10-14T10:36:22;20.85;;;11.93;;
54937;SDS011;52756;52.826;6.214;2022-10-14T10:41:30;19.45;;;11.25;;
54937;SDS011;52756;52.826;6.214;2022-10-14T10:44:20;25.60;;;13.30;;
54937;SDS011;52756;52.826;6.214;2022-10-14T10:47:07;22.40;;;10.68;;
54937;SDS011;52756;52.826;6.214;2022-10-14T10:49:54;22.25;;;12.35;;
54937;SDS011;52756;52.826;6.214;2022-10-14T10:52:59;21.02;;;10.65;;
54937;SDS011;52756;52.826;6.214;2022-10-14T10:58:30;21.45;;;12.20;;
54937;SDS011;52756;52.826;6.214;2022-10-14T11:01:20;22.52;;;11.45;;
54937;SDS011;52756;52.826;6.214;2022-10-14T11:07:07;18.73;;;11.18;;
54937;SDS011;52756;52.826;6.214;2022-10-14T11:10:25;23.10;;;12.18;;
54937;SDS011;52756;52.826;6.214;2022-10-14T11:18:46;20.88;;;11.50;;
54937;SDS011;52756;52.826;6.214;2022-10-14T11:21:28;22.95;;;11.50;;
54937;SDS011;52756;52.826;6.214;2022-10-14T11:40:33;25.30;;;12.93;;
54937;SDS011;52756;52.826;6.214;2022-10-14T11:43:28;27.15;;;14.07;;
54937;SDS011;52756;52.826;6.214;2022-10-14T11:46:00;28.80;;;15.30;;
54937;SDS011;52756;52.826;6.214;2022-10-14T11:53:53;37.70;;;18.45;;
54937;SDS011;52756;52.826;6.214;2022-10-14T11:59:27;31.27;;;17.73;;
54937;SDS011;52756;52.826;6.214;2022-10-14T12:05:14;36.40;;;18.65;;
54937;SDS011;52756;52.826;6.214;2022-10-14T12:07:49;40.28;;;21.00;;
54937;SDS011;52756;52.826;6.214;2022-10-14T12:10:43;35.65;;;20.42;;
54937;SDS011;52756;52.826;6.214;2022-10-14T12:13:21;39.10;;;20.20;;
54937;SDS011;52756;52.826;6.214;2022-10-14T12:15:57;37.95;;;20.85;;
54937;SDS011;52756;52.826;6.214;2022-10-14T12:18:25;35.95;;;19.65;;
54937;SDS011;52756;52.826;6.214;2022-10-14T12:23:42;38.38;;;20.15;;
54937;SDS011;52756;52.826;6.214;2022-10-14T12:26:14;34.03;;;19.05;;
54937;SDS011;52756;52.826;6.214;2022-10-14T12:28:44;34.08;;;18.42;;
54937;SDS011;52756;52.826;6.214;2022-10-14T12:36:39;26.00;;;15.77;;
54937;SDS011;52756;52.826;6.214;2022-10-14T12:41:51;20.15;;;13.73;;
54937;SDS011;52756;52.826;6.214;2022-10-14T12:44:22;19.38;;;14.35;;
54937;SDS011;52756;52.826;6.214;2022-10-14T12:46:58;14.65;;;12.05;;
54937;SDS011;52756;52.826;6.214;2022-10-14T12:49:28;16.20;;;11.73;;
54937;SDS011;52756;52.826;6.214;2022-10-14T12:51:57;15.30;;;11.60;;
54937;SDS011;52756;52.826;6.214;2022-10-14T12:54:28;15.55;;;11.20;;
54937;SDS011;52756;52.826;6.214;2022-10-14T12:59:34;17.83;;;12.50;;
54937;SDS011;52756;52.826;6.214;2022-10-14T13:02:03;15.85;;;12.45;;
54937;SDS011;52756;52.826;6.214;2022-10-14T13:04:50;14.40;;;11.68;;
54937;SDS011;52756;52.826;6.214;2022-10-14T13:10:24;11.95;;;10.73;;
54937;SDS011;52756;52.826;6.214;2022-10-14T13:16:06;12.32;;;11.07;;
54937;SDS011;52756;52.826;6.214;2022-10-14T13:21:30;12.32;;;11.10;;
54937;SDS011;52756;52.826;6.214;2022-10-14T13:40:25;13.65;;;12.32;;
54937;SDS011;52756;52.826;6.214;2022-10-14T13:42:56;13.35;;;12.05;;
54937;SDS011;52756;52.826;6.214;2022-10-14T13:45:31;13.60;;;12.20;;
54937;SDS011;52756;52.826;6.214;2022-10-14T13:48:03;13.95;;;12.52;;
54937;SDS011;52756;52.826;6.214;2022-10-14T13:50:33;13.73;;;12.32;;
54937;SDS011;52756;52.826;6.214;2022-10-14T13:53:05;14.52;;;13.07;;
54937;SDS011;52756;52.826;6.214;2022-10-14T13:55:42;14.02;;;12.63;;
54937;SDS011;52756;52.826;6.214;2022-10-14T13:58:18;13.45;;;11.88;;
54937;SDS011;52756;52.826;6.214;2022-10-14T14:03:33;14.18;;;12.80;;
54937;SDS011;52756;52.826;6.214;2022-10-14T14:06:02;12.93;;;11.63;;
54937;SDS011;52756;52.826;6.214;2022-10-14T14:08:34;13.73;;;12.38;;
54937;SDS011;52756;52.826;6.214;2022-10-14T14:11:07;12.82;;;11.63;;
54937;SDS011;52756;52.826;6.214;2022-10-14T14:13:36;12.50;;;11.30;;
54937;SDS011;52756;52.826;6.214;2022-10-14T14:16:19;11.93;;;10.82;;
54937;SDS011;52756;52.826;6.214;2022-10-14T14:18:47;12.05;;;10.95;;
54937;SDS011;52756;52.826;6.214;2022-10-14T14:21:14;11.63;;;10.57;;
54937;SDS011;52756;52.826;6.214;2022-10-14T14:23:53;11.65;;;10.55;;
54937;SDS011;52756;52.826;6.214;2022-10-14T14:26:36;12.60;;;11.40;;
54937;SDS011;52756;52.826;6.214;2022-10-14T14:29:03;12.40;;;11.27;;
54937;SDS011;52756;52.826;6.214;2022-10-14T14:31:43;12.30;;;11.10;;
54937;SDS011;52756;52.826;6.214;2022-10-14T14:34:12;11.68;;;10.57;;
54937;SDS011;52756;52.826;6.214;2022-10-14T14:36:40;11.48;;;10.38;;
54937;SDS011;52756;52.826;6.214;2022-10-14T14:39:14;12.10;;;10.90;;
54937;SDS011;52756;52.826;6.214;2022-10-14T14:41:55;11.52;;;10.40;;
54937;SDS011;52756;52.826;6.214;2022-10-14T14:44:23;10.95;;;9.82;;
54937;SDS011;52756;52.826;6.214;2022-10-14T14:46:52;11.40;;;10.25;;
54937;SDS011;52756;52.826;6.214;2022-10-14T14:49:24;10.40;;;9.40;;
54937;SDS011;52756;52.826;6.214;2022-10-14T14:51:59;10.20;;;9.25;;
54937;SDS011;52756;52.826;6.214;2022-10-14T14:54:25;10.93;;;9.38;;
54937;SDS011;52756;52.826;6.214;2022-10-14T14:59:31;10.50;;;9.25;;
54937;SDS011;52756;52.826;6.214;2022-10-14T15:02:16;9.82;;;8.85;;
54937;SDS011;52756;52.826;6.214;2022-10-14T15:04:44;9.23;;;8.25;;
54937;SDS011;52756;52.826;6.214;2022-10-14T15:07:26;9.57;;;8.57;;
54937;SDS011;52756;52.826;6.214;2022-10-14T15:09:53;9.10;;;8.20;;
54937;SDS011;52756;52.826;6.214;2022-10-14T15:12:23;8.90;;;7.97;;
54937;SDS011;52756;52.826;6.214;2022-10-14T15:14:53;9.07;;;8.18;;
54937;SDS011;52756;52.826;6.214;2022-10-14T15:19:58;9.10;;;8.30;;
54937;SDS011;52756;52.826;6.214;2022-10-14T15:22:44;8.35;;;7.55;;
54937;SDS011;52756;52.826;6.214;2022-10-14T15:25:12;8.18;;;7.38;;
54937;SDS011;52756;52.826;6.214;2022-10-14T15:27:55;8.25;;;7.45;;
54937;SDS011;52756;52.826;6.214;2022-10-14T15:35:40;7.57;;;6.25;;
54937;SDS011;52756;52.826;6.214;2022-10-14T15:38:26;7.28;;;6.57;;
54937;SDS011;52756;52.826;6.214;2022-10-14T15:40:52;7.95;;;6.32;;
54937;SDS011;52756;52.826;6.214;2022-10-14T15:43:25;6.40;;;5.80;;
54937;SDS011;52756;52.826;6.214;2022-10-14T15:45:52;6.78;;;6.13;;
54937;SDS011;52756;52.826;6.214;2022-10-14T15:48:38;8.40;;;6.45;;
54937;SDS011;52756;52.826;6.214;2022-10-14T15:51:11;5.38;;;4.88;;
54937;SDS011;52756;52.826;6.214;2022-10-14T15:53:40;4.68;;;4.28;;
54937;SDS011;52756;52.826;6.214;2022-10-14T15:56:05;5.43;;;4.10;;
54937;SDS011;52756;52.826;6.214;2022-10-14T15:58:31;3.85;;;3.55;;
54937;SDS011;52756;52.826;6.214;2022-10-14T16:00:58;4.15;;;3.75;;
54937;SDS011;52756;52.826;6.214;2022-10-14T16:03:25;4.55;;;4.10;;
54937;SDS011;52756;52.826;6.214;2022-10-14T16:05:50;4.78;;;4.38;;
54937;SDS011;52756;52.826;6.214;2022-10-14T16:08:16;5.63;;;5.13;;
54937;SDS011;52756;52.826;6.214;2022-10-14T16:10:42;5.90;;;5.40;;
54937;SDS011;52756;52.826;6.214;2022-10-14T16:13:12;5.80;;;5.30;;
54937;SDS011;52756;52.826;6.214;2022-10-14T16:15:41;5.93;;;5.30;;
54937;SDS011;52756;52.826;6.214;2022-10-14T16:18:17;4.60;;;4.20;;
54937;SDS011;52756;52.826;6.214;2022-10-14T16:20:43;5.00;;;4.50;;
54937;SDS011;52756;52.826;6.214;2022-10-14T16:23:16;4.18;;;3.78;;
54937;SDS011;52756;52.826;6.214;2022-10-14T16:25:44;4.70;;;4.30;;
54937;SDS011;52756;52.826;6.214;2022-10-14T16:28:13;5.13;;;4.63;;
54937;SDS011;52756;52.826;6.214;2022-10-14T16:30:41;5.03;;;4.53;;
54937;SDS011;52756;52.826;6.214;2022-10-14T16:33:13;6.47;;;4.85;;
54937;SDS011;52756;52.826;6.214;2022-10-14T16:35:40;4.97;;;4.47;;
54937;SDS011;52756;52.826;6.214;2022-10-14T16:38:08;5.55;;;5.05;;
54937;SDS011;52756;52.826;6.214;2022-10-14T16:40:37;6.97;;;6.22;;
54937;SDS011;52756;52.826;6.214;2022-10-14T16:43:03;6.38;;;5.78;;
54937;SDS011;52756;52.826;6.214;2022-10-14T16:45:29;6.95;;;6.20;;
54937;SDS011;52756;52.826;6.214;2022-10-14T16:47:54;7.97;;;6.15;;
54937;SDS011;52756;52.826;6.214;2022-10-14T16:50:21;9.70;;;7.93;;
54937;SDS011;52756;52.826;6.214;2022-10-14T16:52:47;9.07;;;8.18;;
54937;SDS011;52756;52.826;6.214;2022-10-14T16:55:33;9.35;;;8.43;;
54937;SDS011;52756;52.826;6.214;2022-10-14T16:57:58;8.88;;;7.97;;
54937;SDS011;52756;52.826;6.214;2022-10-14T17:00:24;8.52;;;7.63;;
54937;SDS011;52756;52.826;6.214;2022-10-14T17:02:50;9.68;;;8.05;;